04:15
Airports
History
Links
Donate
Help keep this website running!
PayPal
Bitcoin
Information on this page is community maintained and may be outdated or inaccurate and is intended for reference only or PC simulator navigating!
Always use approved charts for navigating.
UNBB
BARNAUL
BARNAUL (UNBB)
Barnaul, Altai Krai, Russian Federation (656057)
(C)
Lat/Lng:53° 21' 49.59" N / 83° 32' 18.72" E
53.363774 / 83.538534
Elevation:838'ft 255mMSL
ID / ICAO:UNBB
Runways:1
Longest:(06-24) 2,848.5m 9,345ft Concrete
Controlled:Yes
Distance To
Airport ID:
Airport Radio Frequencies
Tower: 123.5
Approach: 120.3, 124, 129
Nearby VORs <50NM
Nearby NDBs
METARUpdated 04-28-17 04:00 GMT
Altimeter: 30.06
Visibility: 6.2 statute miles
Wind: 9.7 knots (290°)
Temp: 19°c 66°f
Humidity: 45.6%

METAR: UNBB 280400Z 29005MPS CAVOK 19/07 Q1018 R24/CLRD66 NOSIG RMK QFE741

(Powered by phpweather)
Runway 06 / 24
Dimensions:2848.5 x 50m 9345' x 164'ft
Surface:Concrete
Edge Lights:High intensity
Runway 06 [A]Runway 24 [B]
Heading:067°TH 247°TH
Lat:
Lng:
53° 21' 31.73"N
83° 31' 7.55"E
53° 22' 7.44"N
83° 33' 29.89"E
ALS:MALSCalvert
Google Map
Nearby Airports
(C) Novosibirsk Tolmachevo 119.4 NM
UNNT NNW 342°
(C) Novosibirsk Yeltsovka 121.4 NM
UNNE N 349°
(C) Novosibirsk Severny 122.2 NM
UNCC NNW 348°
(C) KEMEROVO 167.5 NM
UNEE NE 38°
(C) UST KAMENOGORSK 234.2 NM
UASK S 190°
(C) SEMIPALATINSK 251.4 NM
UASS SW 214°
(C) PAVLODAR 281.9 NM
UASP WSW 253°
VFR Chart
Flight Planning at SkyVector.com